Time;durP1;ratioP1;P1;durP2;ratioP2;P2;SDS_P1;SDS_P2;PMS_P1;PMS_P2;Temp;Humidity;BMP_temperature;BMP_pressure;BME280_temperature;BME280_humidity;BME280_pressure;Samples;Min_cycle;Max_cycle;Signal;HPM_P1;HPM_P2
2023/12/08 00:00:45;;;;;;;5.53;5.13;;;1.30;99.90;;;;;;5057122;28;20223;-77
2023/12/08 00:03:13;;;;;;;7.18;6.60;;;1.30;99.90;;;;;;5059932;28;23047;-77
2023/12/08 00:05:40;;;;;;;7.30;6.75;;;1.30;99.90;;;;;;5056724;28;20247;-76
2023/12/08 00:08:07;;;;;;;6.18;5.68;;;1.30;99.90;;;;;;5061699;28;20214;-76
2023/12/08 00:10:34;;;;;;;5.43;5.05;;;1.30;99.90;;;;;;5056360;28;20245;-75
2023/12/08 00:13:02;;;;;;;4.72;4.43;;;1.30;99.90;;;;;;5058210;28;20819;-77
2023/12/08 00:15:29;;;;;;;4.63;4.32;;;1.40;99.90;;;;;;5057666;28;20210;-76
2023/12/08 00:17:56;;;;;;;5.15;4.85;;;1.30;99.90;;;;;;5057516;28;20222;-76
2023/12/08 00:20:25;;;;;;;6.18;5.57;;;1.30;99.90;;;;;;5059070;28;20217;-75
2023/12/08 00:22:53;;;;;;;5.20;4.72;;;1.30;99.90;;;;;;5059811;28;20281;-77
2023/12/08 00:25:20;;;;;;;4.60;4.30;;;1.30;99.90;;;;;;5057692;28;20264;-76
2023/12/08 00:27:47;;;;;;;5.00;4.60;;;1.30;99.90;;;;;;5059798;28;20213;-77
2023/12/08 00:30:15;;;;;;;4.70;4.40;;;1.30;99.90;;;;;;5055888;28;20218;-76
2023/12/08 00:32:42;;;;;;;5.10;4.70;;;1.30;99.90;;;;;;5061156;28;20226;-76
2023/12/08 00:35:09;;;;;;;4.80;4.50;;;1.30;99.90;;;;;;5062560;28;20229;-76
2023/12/08 00:37:36;;;;;;;4.10;3.90;;;1.30;99.90;;;;;;5063834;28;20772;-76
2023/12/08 00:40:05;;;;;;;4.05;3.75;;;1.30;99.90;;;;;;5059333;28;20218;-77
2023/12/08 00:42:32;;;;;;;3.67;3.47;;;1.30;99.90;;;;;;5061904;28;20297;-77
2023/12/08 00:44:59;;;;;;;4.20;3.90;;;1.30;99.90;;;;;;5057969;28;20237;-76
2023/12/08 00:47:27;;;;;;;4.15;3.85;;;1.30;99.90;;;;;;5058956;28;20213;-77
2023/12/08 00:49:54;;;;;;;4.53;4.22;;;1.30;99.90;;;;;;5057582;28;20218;-76
2023/12/08 00:52:21;;;;;;;3.65;3.45;;;1.40;99.90;;;;;;5056780;28;20206;-76
2023/12/08 00:54:49;;;;;;;3.80;3.60;;;1.40;99.90;;;;;;5057153;28;20237;-77
2023/12/08 00:57:16;;;;;;;3.90;3.67;;;1.40;99.90;;;;;;5059210;28;20206;-77
2023/12/08 00:59:43;;;;;;;3.63;3.42;;;1.40;99.90;;;;;;5061098;28;20214;-77
2023/12/08 01:02:10;;;;;;;3.90;3.70;;;1.50;99.90;;;;;;5062708;28;20195;-76
2023/12/08 01:04:38;;;;;;;3.70;3.50;;;1.50;99.90;;;;;;5056857;28;20845;-77
2023/12/08 01:07:05;;;;;;;3.97;3.55;;;1.50;99.90;;;;;;5057575;28;20229;-77
2023/12/08 01:09:33;;;;;;;4.00;3.78;;;1.50;99.90;;;;;;5056301;28;20233;-77
2023/12/08 01:12:00;;;;;;;3.67;3.47;;;1.40;99.90;;;;;;5061580;28;20198;-78
2023/12/08 01:14:27;;;;;;;3.67;3.45;;;1.40;99.90;;;;;;5062329;28;20230;-76
2023/12/08 01:16:54;;;;;;;4.18;3.90;;;1.40;99.90;;;;;;5061501;28;20203;-76
2023/12/08 01:19:21;;;;;;;3.60;3.40;;;1.30;99.90;;;;;;5048359;28;20215;-77
2023/12/08 01:21:49;;;;;;;4.03;3.83;;;1.30;99.90;;;;;;5037923;28;20199;-76
2023/12/08 01:24:17;;;;;;;3.72;3.53;;;1.30;99.90;;;;;;5042367;28;20234;-76
2023/12/08 01:26:44;;;;;;;4.40;4.20;;;1.30;99.90;;;;;;5038288;28;20210;-76
2023/12/08 01:29:11;;;;;;;4.15;3.85;;;1.30;99.90;;;;;;5039340;28;20242;-76
2023/12/08 01:31:38;;;;;;;3.90;3.70;;;1.30;99.90;;;;;;5039640;28;20207;-78
2023/12/08 01:34:05;;;;;;;3.95;3.75;;;1.20;99.90;;;;;;5040888;28;20223;-77
2023/12/08 01:36:32;;;;;;;4.32;4.03;;;1.20;99.90;;;;;;5040737;28;20199;-78
2023/12/08 01:39:01;;;;;;;4.35;4.05;;;1.20;99.90;;;;;;5041816;28;20931;-76
2023/12/08 01:41:28;;;;;;;4.53;4.20;;;1.10;99.90;;;;;;5042634;28;20199;-77
2023/12/08 01:43:55;;;;;;;4.40;4.20;;;1.10;99.90;;;;;;5045539;28;20595;-77
2023/12/08 01:46:23;;;;;;;4.28;3.97;;;1.10;99.90;;;;;;5056856;28;20627;-77
2023/12/08 01:48:51;;;;;;;4.47;4.18;;;1.10;99.90;;;;;;5061674;28;20735;-78
2023/12/08 01:51:20;;;;;;;3.92;3.72;;;1.10;99.90;;;;;;5085732;28;20224;-79
2023/12/08 01:53:47;;;;;;;4.30;4.00;;;1.10;99.90;;;;;;5085055;28;20229;-77
2023/12/08 01:56:16;;;;;;;4.38;4.07;;;1.00;99.90;;;;;;5062686;28;20198;-78
2023/12/08 01:58:44;;;;;;;4.45;4.05;;;1.00;99.90;;;;;;5062329;28;20202;-77
2023/12/08 02:01:11;;;;;;;3.75;3.53;;;1.00;99.90;;;;;;5061875;28;20198;-77
2023/12/08 02:03:39;;;;;;;4.05;3.80;;;1.00;99.90;;;;;;5058662;28;20222;-77
2023/12/08 02:06:07;;;;;;;4.55;4.25;;;1.00;99.90;;;;;;5060254;28;20704;-79
2023/12/08 02:08:34;;;;;;;4.10;3.80;;;0.90;99.90;;;;;;5063630;28;20225;-78
2023/12/08 02:11:01;;;;;;;3.97;3.67;;;0.90;99.90;;;;;;5062847;28;20194;-78
2023/12/08 02:13:29;;;;;;;4.20;3.90;;;0.90;99.90;;;;;;5062782;28;20264;-76
2023/12/08 02:16:03;;;;;;;4.43;4.13;;;0.90;99.90;;;;;;5064173;28;20852;-76
2023/12/08 02:18:31;;;;;;;4.30;3.95;;;0.90;99.90;;;;;;5062033;28;20209;-76
2023/12/08 02:20:58;;;;;;;4.30;4.10;;;0.90;99.90;;;;;;5066811;28;20203;-77
2023/12/08 02:23:25;;;;;;;3.95;3.72;;;0.80;99.90;;;;;;5061852;28;20222;-77
2023/12/08 02:25:54;;;;;;;3.80;3.53;;;0.90;99.90;;;;;;5067074;28;20225;-76
2023/12/08 02:28:21;;;;;;;4.03;3.83;;;0.90;99.90;;;;;;5064086;28;20206;-77
2023/12/08 02:30:49;;;;;;;4.18;3.88;;;0.80;99.90;;;;;;5083804;28;20226;-77
2023/12/08 02:33:21;;;;;;;4.00;3.75;;;0.90;99.90;;;;;;5064386;28;20214;-77
2023/12/08 02:35:48;;;;;;;4.30;4.00;;;0.90;99.90;;;;;;5062769;28;20581;-78
2023/12/08 02:38:21;;;;;;;3.60;3.40;;;0.80;99.90;;;;;;5062421;28;20205;-77
2023/12/08 02:40:48;;;;;;;4.07;3.88;;;0.90;99.90;;;;;;5062435;28;20242;-76
2023/12/08 02:43:17;;;;;;;4.10;3.80;;;0.80;99.90;;;;;;5066100;28;20222;-76
2023/12/08 02:45:44;;;;;;;4.18;3.88;;;0.80;99.90;;;;;;5063193;28;20226;-77
2023/12/08 02:48:11;;;;;;;4.05;3.75;;;0.80;99.90;;;;;;5066436;28;20194;-77
2023/12/08 02:50:38;;;;;;;4.07;3.78;;;0.80;99.90;;;;;;5063577;28;20678;-78
2023/12/08 02:53:05;;;;;;;4.40;4.10;;;0.80;99.90;;;;;;5063475;28;20222;-78
2023/12/08 02:55:33;;;;;;;3.95;3.75;;;0.80;99.90;;;;;;5065299;28;20233;-78
2023/12/08 02:58:00;;;;;;;3.88;3.67;;;0.90;99.90;;;;;;5065576;28;20202;-78
2023/12/08 03:00:28;;;;;;;4.68;4.38;;;0.90;99.90;;;;;;5066530;28;20223;-78
2023/12/08 03:02:55;;;;;;;4.60;4.30;;;0.90;99.90;;;;;;5064904;28;20194;-76
2023/12/08 03:05:22;;;;;;;4.10;3.90;;;0.90;99.90;;;;;;5062766;28;20211;-77
2023/12/08 03:07:49;;;;;;;3.42;3.25;;;1.00;99.90;;;;;;5071005;28;20206;-77
2023/12/08 03:10:16;;;;;;;4.13;3.80;;;1.00;99.90;;;;;;5065784;28;20226;-76
2023/12/08 03:12:43;;;;;;;4.20;3.90;;;1.00;99.90;;;;;;5066789;28;20201;-77
2023/12/08 03:15:10;;;;;;;4.03;3.83;;;1.10;99.90;;;;;;5066782;28;20232;-77
2023/12/08 03:17:39;;;;;;;4.15;3.88;;;1.10;99.90;;;;;;5069954;28;20207;-78
2023/12/08 03:20:06;;;;;;;3.90;3.70;;;1.10;99.90;;;;;;5066118;28;20229;-77
2023/12/08 03:22:33;;;;;;;4.00;3.80;;;1.20;99.90;;;;;;5070115;28;20205;-78
2023/12/08 03:25:01;;;;;;;3.92;3.72;;;1.20;99.90;;;;;;5067236;28;20229;-77
2023/12/08 03:27:28;;;;;;;4.18;3.88;;;1.20;99.90;;;;;;5066058;28;20214;-78
2023/12/08 03:29:55;;;;;;;3.97;3.78;;;1.20;99.90;;;;;;5073209;28;20210;-79
2023/12/08 03:32:22;;;;;;;4.25;3.95;;;1.20;99.90;;;;;;5076047;28;20205;-77
2023/12/08 03:34:50;;;;;;;3.55;3.35;;;1.20;99.90;;;;;;5066758;28;20727;-78
2023/12/08 03:37:17;;;;;;;3.53;3.33;;;1.30;99.90;;;;;;5060736;28;20235;-77
2023/12/08 03:39:45;;;;;;;4.43;4.13;;;1.30;99.90;;;;;;5065282;28;20214;-77
2023/12/08 03:42:12;;;;;;;4.13;3.90;;;1.30;99.90;;;;;;5067259;28;20284;-78
2023/12/08 03:44:39;;;;;;;3.90;3.70;;;1.20;99.90;;;;;;5063358;28;20226;-78
2023/12/08 03:47:06;;;;;;;4.30;4.00;;;1.20;99.90;;;;;;5067147;28;20218;-78
2023/12/08 03:49:33;;;;;;;3.50;3.30;;;1.20;99.90;;;;;;5066914;28;20225;-78
2023/12/08 03:52:01;;;;;;;3.22;3.03;;;1.30;99.90;;;;;;5064565;28;20217;-78
2023/12/08 03:54:29;;;;;;;4.00;3.78;;;1.30;99.90;;;;;;5067362;28;20221;-77
2023/12/08 03:57:01;;;;;;;4.20;3.90;;;1.30;99.90;;;;;;5049513;28;20600;-78
2023/12/08 03:59:32;;;;;;;3.97;3.78;;;1.40;99.90;;;;;;5051786;28;20250;-77
2023/12/08 04:02:00;;;;;;;3.90;3.60;;;1.40;99.90;;;;;;5065424;28;20210;-78
2023/12/08 04:04:30;;;;;;;3.65;3.45;;;1.40;99.90;;;;;;5064973;28;20295;-79
2023/12/08 04:06:58;;;;;;;4.22;3.92;;;1.50;99.90;;;;;;5079241;28;20214;-77
2023/12/08 04:09:29;;;;;;;4.32;4.00;;;1.40;99.90;;;;;;5093107;28;20273;-77
2023/12/08 04:12:05;;;;;;;4.25;3.95;;;1.40;99.90;;;;;;5065440;28;20224;-78
2023/12/08 04:14:37;;;;;;;4.43;4.13;;;1.40;99.90;;;;;;5060599;28;20226;-77
2023/12/08 04:17:06;;;;;;;3.80;3.60;;;1.40;99.90;;;;;;5046741;28;20289;-77
2023/12/08 04:19:35;;;;;;;3.67;3.47;;;1.30;99.90;;;;;;5066891;28;20222;-78
2023/12/08 04:22:04;;;;;;;4.30;4.00;;;1.30;99.90;;;;;;5064106;28;20688;-77
2023/12/08 04:24:35;;;;;;;3.70;3.50;;;1.30;99.90;;;;;;5064838;28;20254;-75
2023/12/08 04:27:03;;;;;;;4.03;3.83;;;1.30;99.90;;;;;;5064172;28;20226;-76
2023/12/08 04:29:33;;;;;;;4.20;3.90;;;1.30;99.90;;;;;;5061595;28;20218;-76
2023/12/08 04:32:03;;;;;;;4.20;3.92;;;1.20;99.90;;;;;;5060542;28;20851;-77
2023/12/08 04:34:32;;;;;;;3.72;3.53;;;1.30;99.90;;;;;;5058129;28;20276;-78
2023/12/08 04:37:00;;;;;;;3.50;3.30;;;1.30;99.90;;;;;;5057187;28;20199;-77
2023/12/08 04:39:27;;;;;;;4.22;4.00;;;1.30;99.90;;;;;;5062027;28;20252;-77
2023/12/08 04:41:59;;;;;;;4.20;3.90;;;1.20;99.90;;;;;;5062505;28;20282;-76
2023/12/08 04:44:31;;;;;;;4.40;4.10;;;1.10;99.90;;;;;;5055289;28;20639;-78
2023/12/08 04:47:00;;;;;;;3.75;3.53;;;1.00;99.90;;;;;;5066291;28;20226;-78
2023/12/08 04:49:28;;;;;;;4.25;3.95;;;1.00;99.90;;;;;;5055826;28;20226;-78
2023/12/08 04:51:59;;;;;;;3.80;3.60;;;1.00;99.90;;;;;;5063958;28;20202;-79
2023/12/08 04:54:30;;;;;;;4.10;3.90;;;1.00;99.90;;;;;;5061832;28;20304;-77
2023/12/08 04:57:02;;;;;;;3.85;3.65;;;1.00;99.90;;;;;;5048067;28;20203;-77
2023/12/08 04:59:38;;;;;;;3.60;3.40;;;1.10;99.90;;;;;;5056966;28;20267;-78
2023/12/08 05:02:07;;;;;;;3.95;3.75;;;1.10;99.90;;;;;;5066121;28;20198;-78
2023/12/08 05:04:34;;;;;;;4.28;4.05;;;1.10;99.90;;;;;;5061552;28;20228;-78
2023/12/08 05:07:03;;;;;;;4.20;3.90;;;1.10;99.90;;;;;;5058212;28;20229;-76
2023/12/08 05:09:34;;;;;;;3.92;3.72;;;1.10;99.90;;;;;;5066900;28;20221;-78
2023/12/08 05:12:03;;;;;;;3.85;3.65;;;1.10;99.90;;;;;;5079177;28;20190;-78
2023/12/08 05:14:45;;;;;;;4.07;3.88;;;1.10;99.90;;;;;;5067438;28;20318;-77
2023/12/08 05:17:27;;;;;;;3.92;3.72;;;1.00;99.90;;;;;;5069656;28;20226;-78
2023/12/08 05:20:03;;;;;;;4.50;4.13;;;1.00;99.90;;;;;;5064651;28;20592;-78
2023/12/08 05:22:37;;;;;;;3.80;3.60;;;1.00;99.90;;;;;;5066780;28;20233;-77
2023/12/08 05:25:08;;;;;;;4.25;3.95;;;1.00;99.90;;;;;;5051746;28;20213;-77
2023/12/08 05:28:09;;;;;;;3.70;3.50;;;1.00;99.90;;;;;;5062045;28;20310;-77
2023/12/08 05:33:21;;;;;;;3.95;3.75;;;1.00;99.90;;;;;;5061568;28;20226;-78
2023/12/08 05:35:50;;;;;;;3.92;3.63;;;1.00;99.90;;;;;;5048902;28;20257;-77
2023/12/08 05:38:21;;;;;;;4.20;4.00;;;1.10;99.90;;;;;;5047351;28;20587;-78
2023/12/08 05:40:54;;;;;;;3.83;3.63;;;1.10;99.90;;;;;;5038049;28;20227;-77
2023/12/08 05:43:23;;;;;;;4.10;3.80;;;1.10;99.90;;;;;;5047676;28;20235;-76
2023/12/08 05:45:59;;;;;;;4.10;3.90;;;1.10;99.90;;;;;;5051961;28;20229;-78
2023/12/08 05:48:29;;;;;;;4.05;3.75;;;1.10;99.90;;;;;;5068723;28;20213;-78
2023/12/08 05:51:11;;;;;;;4.20;3.90;;;1.10;99.90;;;;;;5067169;28;20696;-77
2023/12/08 05:53:50;;;;;;;4.75;4.45;;;1.10;99.90;;;;;;5069030;28;20214;-77
2023/12/08 05:59:32;;;;;;;4.00;3.80;;;1.10;99.90;;;;;;5065287;28;20222;-76
2023/12/08 06:04:53;;;;;;;4.88;4.47;;;1.10;99.90;;;;;;5063516;28;20383;-76
2023/12/08 06:07:24;;;;;;;4.57;4.28;;;1.10;99.90;;;;;;5063266;28;20210;-75
2023/12/08 06:09:55;;;;;;;4.35;4.05;;;1.00;99.90;;;;;;5074576;28;20214;-78
2023/12/08 06:12:32;;;;;;;4.63;4.32;;;0.90;99.90;;;;;;5067817;28;20285;-76
2023/12/08 06:15:06;;;;;;;4.53;4.22;;;0.90;99.90;;;;;;5070065;28;20221;-76
2023/12/08 06:17:41;;;;;;;4.13;3.83;;;0.80;99.90;;;;;;5068133;28;20200;-77
2023/12/08 06:20:21;;;;;;;4.30;4.10;;;0.90;99.90;;;;;;5067296;28;20275;-77
2023/12/08 06:22:52;;;;;;;4.85;4.47;;;0.90;99.90;;;;;;5070548;28;20206;-78
2023/12/08 06:25:27;;;;;;;4.53;4.22;;;0.90;99.90;;;;;;5093880;28;20214;-77
2023/12/08 06:30:41;;;;;;;4.72;4.32;;;0.80;99.90;;;;;;5062509;28;20253;-77
2023/12/08 06:36:01;;;;;;;5.10;4.70;;;0.80;99.90;;;;;;5068470;28;20283;-77
2023/12/08 06:38:38;;;;;;;4.53;4.18;;;0.80;99.90;;;;;;5052435;28;20214;-77
2023/12/08 06:44:30;;;;;;;4.63;4.28;;;1.00;99.90;;;;;;5064133;28;20287;-77
2023/12/08 06:47:11;;;;;;;4.53;4.13;;;1.10;99.90;;;;;;5070465;28;20218;-77
2023/12/08 06:55:20;;;;;;;4.68;4.38;;;1.10;99.90;;;;;;5057496;28;20214;-77
2023/12/08 07:00:38;;;;;;;4.32;4.03;;;1.20;99.90;;;;;;5061406;28;20222;-76
2023/12/08 07:03:22;;;;;;;4.68;4.30;;;1.20;99.90;;;;;;5067867;28;20214;-77
2023/12/08 07:22:57;;;;;;;5.50;5.10;;;1.40;99.90;;;;;;5076987;28;20684;-80
2023/12/08 08:05:47;;;;;;;10.10;8.32;;;1.30;99.90;;;;;;5107178;27;20600;-71
2023/12/08 08:08:14;;;;;;;30.58;23.20;;;1.30;99.90;;;;;;5097486;28;20725;-71
2023/12/08 08:10:41;;;;;;;24.20;18.65;;;1.30;99.90;;;;;;5092430;27;20224;-72
2023/12/08 08:13:08;;;;;;;19.33;15.23;;;1.40;99.90;;;;;;5092468;28;20314;-71
2023/12/08 08:15:35;;;;;;;19.10;15.43;;;1.40;99.90;;;;;;5085622;28;20244;-72
2023/12/08 08:18:02;;;;;;;12.80;11.45;;;1.50;99.90;;;;;;5095252;28;20193;-72
2023/12/08 08:20:30;;;;;;;12.43;11.10;;;1.60;99.90;;;;;;5088265;28;20245;-71
2023/12/08 08:23:01;;;;;;;11.50;10.32;;;1.60;99.90;;;;;;5094742;28;20821;-76
2023/12/08 08:25:31;;;;;;;10.82;9.77;;;1.60;99.90;;;;;;5094911;28;20220;-75
2023/12/08 08:28:00;;;;;;;9.02;8.23;;;1.70;99.90;;;;;;5093730;28;20233;-76
2023/12/08 08:30:27;;;;;;;8.55;7.75;;;1.70;99.90;;;;;;5094581;28;20785;-72
2023/12/08 08:32:54;;;;;;;8.35;7.55;;;1.80;99.90;;;;;;5090478;28;20895;-74
2023/12/08 08:35:22;;;;;;;8.52;7.72;;;1.90;99.90;;;;;;5090680;28;20308;-74
2023/12/08 08:37:49;;;;;;;7.57;6.88;;;1.80;99.90;;;;;;5075862;28;20197;-72
2023/12/08 08:40:20;;;;;;;7.05;6.45;;;1.80;99.90;;;;;;5090564;28;20243;-74
2023/12/08 08:42:47;;;;;;;7.18;6.57;;;1.80;99.90;;;;;;5092571;28;20259;-72
2023/12/08 08:45:15;;;;;;;6.65;5.95;;;1.80;99.90;;;;;;5092207;28;20225;-72
2023/12/08 08:47:42;;;;;;;6.30;5.80;;;1.80;99.90;;;;;;5092404;28;20254;-72
2023/12/08 08:50:10;;;;;;;5.85;5.45;;;1.80;99.90;;;;;;5094591;27;20874;-72
2023/12/08 08:52:37;;;;;;;6.10;5.65;;;1.90;99.90;;;;;;5094186;28;20422;-72
2023/12/08 08:55:06;;;;;;;6.10;5.60;;;1.90;99.90;;;;;;5087874;28;20189;-72
2023/12/08 08:57:35;;;;;;;5.90;5.50;;;1.80;99.90;;;;;;5088130;28;20438;-72
2023/12/08 09:00:04;;;;;;;5.07;4.78;;;1.70;99.90;;;;;;5092455;28;20616;-72
2023/12/08 09:02:31;;;;;;;5.90;5.43;;;1.60;99.90;;;;;;5094466;28;20261;-72
2023/12/08 09:04:58;;;;;;;5.75;5.35;;;1.60;99.90;;;;;;5095223;28;20213;-72
2023/12/08 09:07:26;;;;;;;9.13;8.23;;;1.70;99.90;;;;;;5090315;28;20205;-72
2023/12/08 09:09:53;;;;;;;8.10;7.30;;;1.70;99.90;;;;;;5093318;28;20204;-72
2023/12/08 09:12:20;;;;;;;7.70;7.00;;;1.80;99.90;;;;;;5098364;28;20224;-72
2023/12/08 09:14:49;;;;;;;7.35;6.75;;;1.90;99.90;;;;;;5094809;28;20205;-72
2023/12/08 09:17:16;;;;;;;6.60;6.10;;;2.00;99.90;;;;;;5093704;28;20248;-72
2023/12/08 09:19:43;;;;;;;6.38;5.88;;;2.10;99.90;;;;;;5078435;28;20676;-71
2023/12/08 09:22:11;;;;;;;6.68;6.18;;;2.20;99.90;;;;;;5073666;28;20760;-71
2023/12/08 09:24:38;;;;;;;6.30;5.82;;;2.30;99.90;;;;;;5076963;28;20277;-71
2023/12/08 09:27:06;;;;;;;6.63;6.10;;;2.30;99.90;;;;;;5055270;28;20878;-71
2023/12/08 09:29:33;;;;;;;8.68;7.85;;;2.40;99.90;;;;;;5050962;28;20214;-71
2023/12/08 09:32:02;;;;;;;8.27;7.38;;;2.40;99.90;;;;;;5055281;28;20619;-74
2023/12/08 09:34:29;;;;;;;8.95;8.02;;;2.40;99.90;;;;;;5050979;28;20205;-71
2023/12/08 09:36:56;;;;;;;9.02;8.13;;;2.40;99.90;;;;;;5067781;28;20225;-72
2023/12/08 09:39:25;;;;;;;8.90;8.10;;;2.30;99.90;;;;;;5069638;28;20205;-73
2023/12/08 09:42:02;;;;;;;8.38;7.57;;;2.20;99.90;;;;;;5074327;28;20226;-72
2023/12/08 09:44:30;;;;;;;7.65;6.90;;;2.20;99.90;;;;;;5054342;28;20263;-71
2023/12/08 09:47:00;;;;;;;7.30;6.60;;;2.20;99.90;;;;;;5060465;28;20933;-71
2023/12/08 09:49:30;;;;;;;7.20;6.50;;;2.10;99.90;;;;;;5075723;28;20275;-71
2023/12/08 09:51:58;;;;;;;7.25;6.55;;;2.10;99.90;;;;;;5079929;28;20710;-71
2023/12/08 09:54:26;;;;;;;6.25;5.75;;;2.20;99.90;;;;;;5082609;28;20674;-71
2023/12/08 09:56:54;;;;;;;6.78;6.18;;;2.20;99.90;;;;;;5082362;28;20229;-72
2023/12/08 09:59:25;;;;;;;6.80;6.30;;;2.20;99.90;;;;;;5079250;28;20697;-72
2023/12/08 10:01:52;;;;;;;6.32;5.80;;;2.20;99.90;;;;;;5076444;28;20218;-71
2023/12/08 10:04:20;;;;;;;5.55;5.05;;;2.20;99.90;;;;;;5080625;28;20620;-71
2023/12/08 10:06:50;;;;;;;6.55;5.95;;;2.20;99.90;;;;;;5077030;28;20226;-71
2023/12/08 10:09:18;;;;;;;6.43;5.90;;;2.20;99.90;;;;;;5081308;28;20205;-72
2023/12/08 10:11:46;;;;;;;6.63;6.03;;;2.20;99.90;;;;;;5076641;28;20793;-70
2023/12/08 10:14:15;;;;;;;6.55;6.00;;;2.20;99.90;;;;;;5077028;28;20223;-71
2023/12/08 10:16:44;;;;;;;6.80;6.30;;;2.20;99.90;;;;;;5079408;28;20225;-71
2023/12/08 10:19:11;;;;;;;6.82;6.22;;;2.10;99.90;;;;;;5080286;28;20289;-72
2023/12/08 10:21:39;;;;;;;6.88;6.28;;;2.00;99.90;;;;;;5084610;28;20221;-72
2023/12/08 10:24:09;;;;;;;7.00;6.40;;;2.10;99.90;;;;;;5081468;28;20204;-73
2023/12/08 10:26:36;;;;;;;6.35;5.75;;;2.10;99.90;;;;;;5076323;28;20253;-70
2023/12/08 10:29:03;;;;;;;8.63;7.85;;;2.10;99.90;;;;;;5078648;28;20819;-71
2023/12/08 10:31:30;;;;;;;8.25;7.47;;;2.10;99.90;;;;;;5077138;28;20216;-71
2023/12/08 10:33:57;;;;;;;7.80;7.10;;;2.10;99.90;;;;;;5072423;28;20563;-71
2023/12/08 10:36:25;;;;;;;7.43;6.72;;;2.10;99.90;;;;;;5076058;28;20806;-71
2023/12/08 10:38:52;;;;;;;8.15;7.32;;;2.10;99.90;;;;;;5075734;28;20285;-71
2023/12/08 10:41:22;;;;;;;7.38;6.68;;;2.10;99.90;;;;;;5078552;27;20240;-71
2023/12/08 10:43:49;;;;;;;8.30;7.60;;;2.10;99.90;;;;;;5075296;28;20197;-71
2023/12/08 10:46:16;;;;;;;8.15;7.38;;;2.10;99.90;;;;;;5074166;28;20228;-71
2023/12/08 10:48:44;;;;;;;8.02;7.25;;;2.20;99.90;;;;;;5078824;28;20303;-71
2023/12/08 10:51:14;;;;;;;7.57;6.88;;;2.20;99.90;;;;;;5076903;28;20845;-71
2023/12/08 10:53:44;;;;;;;7.30;6.70;;;2.30;99.90;;;;;;5076834;28;20197;-71
2023/12/08 10:56:15;;;;;;;8.50;7.70;;;2.40;99.90;;;;;;5078651;28;20918;-72
2023/12/08 10:58:46;;;;;;;7.97;7.28;;;2.50;99.90;;;;;;5074845;28;20209;-71
2023/12/08 11:01:15;;;;;;;8.00;7.20;;;2.60;99.90;;;;;;5076739;28;20236;-71
2023/12/08 11:03:44;;;;;;;6.50;5.95;;;2.70;99.90;;;;;;5072422;28;20209;-72
2023/12/08 11:06:16;;;;;;;7.18;6.50;;;2.70;99.90;;;;;;5075994;28;20218;-71
2023/12/08 11:08:47;;;;;;;15.05;11.15;;;2.70;99.90;;;;;;5073044;28;20200;-71
2023/12/08 11:11:15;;;;;;;13.13;10.82;;;2.70;99.90;;;;;;5079968;28;20221;-71
2023/12/08 11:13:46;;;;;;;14.27;11.30;;;2.70;99.90;;;;;;5076303;28;20232;-71
2023/12/08 11:16:24;;;;;;;13.55;11.73;;;2.60;99.90;;;;;;5078907;28;20234;-71
2023/12/08 11:18:53;;;;;;;9.82;8.63;;;2.60;99.90;;;;;;5076576;28;20204;-71
2023/12/08 11:21:20;;;;;;;8.25;7.45;;;2.60;99.90;;;;;;5073352;28;20220;-71
2023/12/08 11:23:48;;;;;;;7.32;6.00;;;2.50;99.90;;;;;;5076229;28;20206;-71
2023/12/08 11:26:23;;;;;;;5.88;5.47;;;2.50;99.90;;;;;;5080340;28;20316;-71
2023/12/08 11:29:03;;;;;;;4.65;4.25;;;2.40;99.90;;;;;;5074660;28;20267;-71
2023/12/08 11:31:39;;;;;;;5.07;4.68;;;2.40;99.90;;;;;;5088929;27;20253;-71
2023/12/08 11:34:12;;;;;;;5.40;5.00;;;2.40;99.90;;;;;;5077520;28;20212;-71
2023/12/08 11:36:45;;;;;;;5.00;4.47;;;2.50;99.90;;;;;;5064776;28;20598;-70
2023/12/08 11:39:41;;;;;;;57.05;38.63;;;2.60;99.90;;;;;;5057318;28;20241;-71
2023/12/08 11:42:10;;;;;;;21.27;14.13;;;2.80;99.90;;;;;;5064274;28;20749;-71
2023/12/08 11:44:40;;;;;;;15.07;11.65;;;2.90;99.90;;;;;;5057021;28;20585;-70
2023/12/08 11:47:08;;;;;;;11.73;9.18;;;3.00;99.90;;;;;;5067663;28;20773;-71
2023/12/08 11:49:37;;;;;;;9.27;7.72;;;3.10;99.90;;;;;;5074239;28;20212;-71
2023/12/08 11:52:20;;;;;;;7.15;6.45;;;3.20;99.90;;;;;;5074578;28;21009;-71
2023/12/08 11:55:06;;;;;;;8.85;7.45;;;3.20;99.90;;;;;;5078673;28;20243;-71
2023/12/08 11:57:35;;;;;;;7.65;6.95;;;3.10;99.90;;;;;;5079562;28;20239;-71
2023/12/08 12:00:07;;;;;;;6.65;6.05;;;2.90;99.90;;;;;;5069875;28;20909;-71
2023/12/08 12:02:34;;;;;;;6.95;6.35;;;2.90;99.90;;;;;;5069868;28;20248;-71
2023/12/08 12:05:02;;;;;;;7.10;6.43;;;2.80;99.90;;;;;;5073575;28;20266;-70
2023/12/08 12:07:30;;;;;;;6.30;5.70;;;2.80;99.90;;;;;;5074964;28;20240;-71
2023/12/08 12:09:57;;;;;;;6.20;5.70;;;2.70;99.90;;;;;;5067407;28;20565;-71
2023/12/08 12:12:28;;;;;;;6.85;6.20;;;2.70;99.90;;;;;;5078426;28;20229;-71
2023/12/08 12:14:57;;;;;;;6.60;6.00;;;2.60;99.90;;;;;;5071117;28;20197;-70
2023/12/08 12:17:25;;;;;;;6.85;6.28;;;2.60;99.90;;;;;;5075857;28;20711;-71
2023/12/08 12:19:53;;;;;;;7.10;6.47;;;2.60;99.90;;;;;;5068636;28;20690;-71
2023/12/08 12:22:21;;;;;;;7.10;6.50;;;2.60;99.90;;;;;;5069331;28;20226;-71
2023/12/08 12:24:48;;;;;;;5.85;5.35;;;2.70;99.90;;;;;;5074169;28;20198;-70
2023/12/08 12:27:15;;;;;;;6.75;5.93;;;2.60;99.90;;;;;;5077824;28;20221;-70
2023/12/08 12:29:43;;;;;;;6.35;5.85;;;2.70;99.90;;;;;;5073242;28;20437;-71
2023/12/08 12:32:10;;;;;;;7.00;6.30;;;2.70;99.90;;;;;;5077962;28;20311;-71
2023/12/08 12:34:39;;;;;;;6.72;6.03;;;2.60;99.90;;;;;;5069784;28;20757;-71
2023/12/08 12:37:07;;;;;;;6.68;6.07;;;2.60;99.90;;;;;;5073222;28;20229;-71
2023/12/08 12:39:35;;;;;;;7.13;6.50;;;2.70;99.90;;;;;;5070295;28;20410;-71
2023/12/08 12:42:04;;;;;;;6.60;6.10;;;2.70;99.90;;;;;;5073775;28;20221;-71
2023/12/08 12:44:41;;;;;;;6.75;5.95;;;2.70;99.90;;;;;;5071209;28;20212;-71
2023/12/08 12:47:11;;;;;;;6.60;6.10;;;2.70;99.90;;;;;;5070807;28;20237;-71
2023/12/08 12:50:03;;;;;;;5.90;5.40;;;2.80;99.90;;;;;;5068947;28;20213;-71
2023/12/08 12:52:32;;;;;;;6.57;6.05;;;2.90;99.90;;;;;;5077988;28;20226;-71
2023/12/08 12:54:59;;;;;;;7.00;6.40;;;2.90;99.90;;;;;;5079345;28;20197;-71
2023/12/08 12:57:41;;;;;;;7.53;7.00;;;2.90;99.90;;;;;;5076599;28;20220;-71
2023/12/08 13:00:10;;;;;;;7.28;5.68;;;2.90;99.90;;;;;;5077432;28;20524;-71
2023/12/08 13:02:37;;;;;;;5.72;5.07;;;3.00;99.90;;;;;;5078300;28;20316;-71
2023/12/08 13:05:08;;;;;;;5.60;5.20;;;2.80;99.90;;;;;;5075314;28;20213;-71
2023/12/08 13:07:35;;;;;;;5.30;4.90;;;2.70;99.90;;;;;;5071401;28;20707;-70
2023/12/08 13:10:04;;;;;;;5.45;4.95;;;2.70;99.90;;;;;;5076640;28;20770;-71
2023/12/08 13:12:32;;;;;;;4.97;4.50;;;2.70;99.90;;;;;;5075918;28;20541;-71
2023/12/08 13:15:00;;;;;;;4.68;4.38;;;2.70;99.90;;;;;;5078080;28;20195;-71
2023/12/08 13:17:27;;;;;;;5.05;4.68;;;2.60;99.90;;;;;;5074855;28;20245;-71
2023/12/08 13:19:55;;;;;;;4.97;4.68;;;2.60;99.90;;;;;;5073643;28;20217;-71
2023/12/08 13:22:24;;;;;;;4.35;4.05;;;2.50;99.90;;;;;;5074699;28;20284;-70
2023/12/08 13:24:51;;;;;;;4.78;4.47;;;2.50;99.90;;;;;;5072688;28;20438;-71
2023/12/08 13:27:19;;;;;;;6.57;5.97;;;2.50;99.90;;;;;;5077324;28;20867;-71
2023/12/08 13:29:46;;;;;;;5.85;5.35;;;2.50;99.90;;;;;;5075648;28;20284;-70
2023/12/08 13:32:13;;;;;;;5.47;4.97;;;2.50;99.90;;;;;;5075059;28;20349;-71
2023/12/08 13:34:40;;;;;;;5.05;4.70;;;2.60;99.90;;;;;;5077077;28;20397;-71
2023/12/08 13:37:08;;;;;;;5.10;4.70;;;2.60;99.90;;;;;;5079312;28;20221;-71
2023/12/08 13:39:36;;;;;;;4.80;4.50;;;2.50;99.90;;;;;;5076344;28;20202;-71
2023/12/08 13:42:05;;;;;;;4.70;4.30;;;2.40;99.90;;;;;;5076910;28;20474;-71
2023/12/08 13:44:32;;;;;;;4.97;4.68;;;2.30;99.90;;;;;;5078806;28;20201;-70
2023/12/08 13:46:59;;;;;;;4.65;4.35;;;2.20;99.90;;;;;;5072816;28;20221;-72
2023/12/08 13:49:27;;;;;;;5.63;5.22;;;2.20;99.90;;;;;;5073685;28;20706;-70
2023/12/08 13:51:54;;;;;;;5.90;5.50;;;2.30;99.90;;;;;;5076514;28;20221;-71
2023/12/08 13:54:22;;;;;;;7.70;7.00;;;2.30;99.90;;;;;;5077766;28;20208;-71
2023/12/08 13:56:51;;;;;;;6.80;6.20;;;2.20;99.90;;;;;;5072529;28;20226;-71
2023/12/08 13:59:18;;;;;;;6.90;6.30;;;2.20;99.90;;;;;;5080594;28;20667;-71
2023/12/08 14:01:45;;;;;;;8.90;7.93;;;2.30;99.90;;;;;;5074256;28;20276;-71
2023/12/08 14:04:12;;;;;;;6.70;6.20;;;2.40;99.90;;;;;;5079825;28;20212;-72
2023/12/08 14:06:39;;;;;;;6.60;6.00;;;2.30;99.90;;;;;;5072640;28;20229;-71
2023/12/08 14:09:09;;;;;;;6.35;5.85;;;2.30;99.90;;;;;;5073376;28;20204;-72
2023/12/08 14:11:37;;;;;;;8.07;6.68;;;2.30;99.90;;;;;;5078059;28;20225;-71
2023/12/08 14:14:05;;;;;;;5.30;4.88;;;2.30;99.90;;;;;;5071382;28;20212;-72
2023/12/08 14:16:33;;;;;;;4.82;4.53;;;2.30;99.90;;;;;;5072670;28;20636;-74
2023/12/08 14:19:01;;;;;;;5.07;4.78;;;2.30;99.90;;;;;;5068559;28;20201;-73
2023/12/08 14:21:29;;;;;;;5.20;4.70;;;2.20;99.90;;;;;;5066571;28;20221;-72
2023/12/08 14:23:56;;;;;;;4.43;4.13;;;2.20;99.90;;;;;;5075633;28;20194;-72
2023/12/08 14:26:23;;;;;;;5.20;4.90;;;2.20;99.90;;;;;;5077317;28;20221;-70
2023/12/08 14:28:50;;;;;;;4.85;4.55;;;2.10;99.90;;;;;;5076122;28;20208;-71